createdAt,value
2018-04-08T00:00:30.608Z,21.77
2018-04-08T00:02:58.159Z,27.97
2018-04-08T00:05:25.751Z,23.80
2018-04-08T00:07:53.342Z,37.60
2018-04-08T00:10:20.892Z,28.93
2018-04-08T00:12:48.464Z,20.30
2018-04-08T00:15:16.006Z,21.80
2018-04-08T00:17:43.575Z,24.13
2018-04-08T00:20:11.174Z,26.37
2018-04-08T00:22:38.772Z,21.40
2018-04-08T00:25:06.333Z,24.80
2018-04-08T00:27:33.898Z,23.10
2018-04-08T00:30:01.537Z,23.70
2018-04-08T00:32:29.080Z,25.50
2018-04-08T00:34:56.624Z,27.13
2018-04-08T00:37:24.197Z,23.90
2018-04-08T00:39:51.749Z,29.60
2018-04-08T00:42:19.333Z,25.93
2018-04-08T00:44:46.896Z,28.23
2018-04-08T00:47:14.467Z,20.00
2018-04-08T00:49:42.023Z,24.03
2018-04-08T00:52:09.587Z,30.87
2018-04-08T00:54:37.139Z,25.07
2018-04-08T00:57:05.057Z,22.17
2018-04-08T00:59:32.622Z,23.67
2018-04-08T01:02:00.159Z,26.07
2018-04-08T01:04:27.748Z,20.47
2018-04-08T01:06:55.312Z,26.93
2018-04-08T01:09:22.860Z,28.10
2018-04-08T01:11:50.472Z,22.60
2018-04-08T01:14:18.021Z,28.87
2018-04-08T01:16:45.564Z,28.73
2018-04-08T01:19:13.118Z,29.93
2018-04-08T01:21:40.668Z,30.53
2018-04-08T01:24:08.249Z,23.83
2018-04-08T01:26:35.810Z,24.57
2018-04-08T01:29:03.414Z,27.10
2018-04-08T01:31:30.969Z,27.07
2018-04-08T01:33:58.506Z,31.47
2018-04-08T01:36:26.098Z,25.80
2018-04-08T01:38:53.671Z,42.80
2018-04-08T01:41:21.372Z,26.70
2018-04-08T01:43:48.913Z,23.53
2018-04-08T01:46:16.504Z,24.63
2018-04-08T01:48:44.056Z,30.80
2018-04-08T01:51:11.609Z,27.47
2018-04-08T01:53:39.221Z,33.70
2018-04-08T01:56:06.777Z,26.50
2018-04-08T01:58:34.328Z,37.40
2018-04-08T02:01:01.938Z,28.60
2018-04-08T02:03:29.518Z,29.17
2018-04-08T02:05:57.055Z,28.63
2018-04-08T02:08:24.663Z,27.53
2018-04-08T02:10:52.208Z,25.43
2018-04-08T02:13:19.745Z,26.73
2018-04-08T02:15:47.304Z,25.67
2018-04-08T02:18:14.857Z,29.57
2018-04-08T02:20:42.465Z,30.20
2018-04-08T02:23:10.011Z,28.90
2018-04-08T02:25:37.580Z,29.20
2018-04-08T02:28:05.190Z,34.73
2018-04-08T02:30:32.737Z,29.30
2018-04-08T02:33:00.347Z,28.00
2018-04-08T02:35:27.897Z,27.00
2018-04-08T02:37:55.434Z,27.93
2018-04-08T02:40:23.040Z,30.87
2018-04-08T02:42:50.588Z,25.10
2018-04-08T02:45:18.129Z,24.63
2018-04-08T02:47:45.710Z,33.67
2018-04-08T02:50:13.255Z,31.50
2018-04-08T02:52:40.829Z,28.60
2018-04-08T02:55:08.392Z,35.10
2018-04-08T02:57:35.997Z,27.20
2018-04-08T03:00:03.558Z,26.83
2018-04-08T03:02:31.113Z,26.53
2018-04-08T03:04:58.674Z,28.00
2018-04-08T03:07:26.231Z,26.37
2018-04-08T03:09:53.789Z,34.10
2018-04-08T03:12:21.418Z,36.90
2018-04-08T03:14:48.984Z,28.30
2018-04-08T03:17:16.615Z,30.87
2018-04-08T03:19:44.192Z,30.07
2018-04-08T03:22:11.752Z,29.67
2018-04-08T03:24:39.291Z,28.80
2018-04-08T03:27:07.263Z,24.80
2018-04-08T03:29:34.815Z,24.27
2018-04-08T03:32:02.363Z,30.30
2018-04-08T03:34:29.961Z,28.00
2018-04-08T03:36:57.520Z,28.87
2018-04-08T03:39:25.083Z,29.67
2018-04-08T03:41:52.642Z,30.80
2018-04-08T03:44:20.196Z,25.90
2018-04-08T03:46:47.759Z,36.93
2018-04-08T03:49:15.309Z,33.67
2018-04-08T03:51:42.886Z,25.17
2018-04-08T03:54:10.507Z,26.93
2018-04-08T03:56:38.069Z,26.63
2018-04-08T03:59:05.622Z,25.70
2018-04-08T04:01:33.204Z,29.50
2018-04-08T04:04:00.760Z,28.50
2018-04-08T04:06:28.374Z,44.67
2018-04-08T04:08:55.915Z,26.50
2018-04-08T04:11:23.455Z,28.63
2018-04-08T04:13:51.045Z,26.97
2018-04-08T04:16:18.609Z,25.10
2018-04-08T04:18:58.029Z,32.37
2018-04-08T04:21:37.473Z,31.03
2018-04-08T04:27:09.302Z,31.97
2018-04-08T04:29:36.923Z,29.20
2018-04-08T04:32:04.476Z,24.90
2018-04-08T04:34:32.032Z,34.20
2018-04-08T04:36:59.652Z,31.23
2018-04-08T04:39:27.197Z,34.73
2018-04-08T04:41:54.752Z,33.67
2018-04-08T04:44:22.658Z,31.57
2018-04-08T04:46:50.208Z,30.83
2018-04-08T04:49:17.756Z,29.83
2018-04-08T04:51:45.319Z,27.97
2018-04-08T04:54:12.894Z,30.77
2018-04-08T04:56:40.442Z,28.70
2018-04-08T04:59:08.086Z,24.90
2018-04-08T05:01:35.639Z,31.13
2018-04-08T05:04:03.203Z,27.57
2018-04-08T05:06:30.781Z,29.87
2018-04-08T05:08:58.334Z,27.73
2018-04-08T05:11:25.947Z,25.20
2018-04-08T05:13:53.531Z,34.50
2018-04-08T05:16:21.076Z,25.30
2018-04-08T05:18:48.647Z,28.13
2018-04-08T05:21:16.192Z,24.07
2018-04-08T05:23:43.760Z,31.90
2018-04-08T05:26:11.329Z,24.30
2018-04-08T05:28:39.288Z,30.30
2018-04-08T05:31:06.832Z,30.80
2018-04-08T05:33:34.394Z,28.77
2018-04-08T05:36:01.976Z,88.47
2018-04-08T05:38:29.531Z,32.70
2018-04-08T05:40:57.127Z,32.67
2018-04-08T05:43:24.693Z,27.40
2018-04-08T05:45:52.259Z,29.00
2018-04-08T05:48:19.812Z,28.87
2018-04-08T05:50:47.390Z,34.20
2018-04-08T05:53:14.983Z,37.20
2018-04-08T05:55:42.542Z,35.63
2018-04-08T05:58:10.074Z,27.50
2018-04-08T06:00:37.672Z,36.30
2018-04-08T06:03:05.243Z,33.83
2018-04-08T06:05:32.796Z,33.50
2018-04-08T06:08:00.390Z,31.63
2018-04-08T06:10:27.953Z,32.00
2018-04-08T06:12:55.516Z,32.17
2018-04-08T06:15:23.072Z,30.37
2018-04-08T06:17:50.602Z,33.77
2018-04-08T06:20:18.211Z,32.03
2018-04-08T06:22:45.765Z,27.00
2018-04-08T06:25:13.325Z,26.50
2018-04-08T06:27:41.263Z,31.80
2018-04-08T06:30:08.836Z,30.60
2018-04-08T06:32:36.395Z,40.03
2018-04-08T06:35:04.002Z,31.70
2018-04-08T06:37:31.566Z,29.87
2018-04-08T06:39:59.149Z,28.07
2018-04-08T06:42:26.737Z,31.77
2018-04-08T06:44:54.593Z,31.33
2018-04-08T06:47:22.204Z,30.87
2018-04-08T06:49:49.806Z,27.80
2018-04-08T06:52:17.365Z,24.33
2018-04-08T06:54:44.926Z,26.53
2018-04-08T06:57:12.865Z,25.20
2018-04-08T06:59:40.467Z,29.60
2018-04-08T07:02:08.002Z,22.30
2018-04-08T07:04:36.134Z,24.37
2018-04-08T07:07:03.679Z,27.13
2018-04-08T07:09:31.249Z,28.70
2018-04-08T07:11:58.830Z,26.50
2018-04-08T07:14:26.395Z,24.73
2018-04-08T07:16:54.036Z,30.33
2018-04-08T07:19:21.597Z,28.93
2018-04-08T07:21:49.144Z,22.27
2018-04-08T07:24:16.720Z,22.80
2018-04-08T07:26:44.311Z,25.27
2018-04-08T07:29:11.851Z,24.60
2018-04-08T07:31:39.424Z,23.37
2018-04-08T07:34:07.376Z,19.67
2018-04-08T07:36:34.918Z,23.93
2018-04-08T07:39:02.480Z,23.90
2018-04-08T07:41:30.092Z,30.50
2018-04-08T07:43:57.673Z,26.87
2018-04-08T07:46:25.269Z,26.50
2018-04-08T07:48:52.851Z,29.30
2018-04-08T07:51:20.400Z,22.27
2018-04-08T07:53:47.997Z,25.47
2018-04-08T07:56:15.580Z,23.57
2018-04-08T07:58:43.175Z,22.93
2018-04-08T08:01:10.800Z,25.67
2018-04-08T08:03:38.351Z,23.80
2018-04-08T08:06:05.901Z,25.13
2018-04-08T08:08:33.473Z,22.53
2018-04-08T08:11:01.019Z,22.90
2018-04-08T08:13:28.587Z,24.43
2018-04-08T08:15:56.135Z,27.00
2018-04-08T08:18:23.866Z,24.70
2018-04-08T08:20:51.402Z,22.87
2018-04-08T08:23:18.958Z,18.77
2018-04-08T08:25:46.579Z,23.57
2018-04-08T08:28:14.124Z,24.43
2018-04-08T08:30:41.658Z,21.80
2018-04-08T08:33:09.260Z,27.50
2018-04-08T08:35:36.849Z,21.23
2018-04-08T08:38:04.435Z,30.03
2018-04-08T08:40:31.996Z,18.97
2018-04-08T08:42:59.563Z,24.20
2018-04-08T08:45:27.132Z,21.90
2018-04-08T08:47:54.699Z,22.60
2018-04-08T08:50:22.285Z,19.87
2018-04-08T08:52:49.840Z,22.27
2018-04-08T08:55:17.428Z,23.17
2018-04-08T08:57:44.977Z,21.23
2018-04-08T09:00:12.548Z,20.43
2018-04-08T09:02:40.102Z,19.27
2018-04-08T09:05:07.680Z,17.63
2018-04-08T09:07:35.236Z,20.67
2018-04-08T09:10:02.863Z,23.03
2018-04-08T09:12:30.413Z,19.93
2018-04-08T09:14:57.958Z,25.73
2018-04-08T09:17:25.598Z,24.57
2018-04-08T09:23:00.508Z,23.27
2018-04-08T09:25:28.596Z,22.60
2018-04-08T09:27:56.127Z,18.90
2018-04-08T09:30:23.678Z,22.13
2018-04-08T09:32:51.219Z,16.90
2018-04-08T09:35:18.860Z,18.50
2018-04-08T09:37:46.407Z,21.03
2018-04-08T09:40:13.948Z,19.47
2018-04-08T09:42:41.593Z,17.77
2018-04-08T09:45:09.188Z,21.13
2018-04-08T09:47:36.756Z,20.43
2018-04-08T09:50:04.319Z,17.80
2018-04-08T09:52:31.901Z,21.40
2018-04-08T09:54:59.475Z,18.53
2018-04-08T09:57:30.047Z,16.93
2018-04-08T09:59:57.605Z,16.03
2018-04-08T10:05:29.275Z,19.10
2018-04-08T10:07:56.870Z,18.63
2018-04-08T10:10:24.420Z,15.50
2018-04-08T10:12:51.985Z,18.53
2018-04-08T10:15:19.595Z,18.53
2018-04-08T10:17:47.148Z,17.87
2018-04-08T10:20:14.694Z,22.23
2018-04-08T10:22:42.278Z,16.50
2018-04-08T10:25:09.840Z,16.83
2018-04-08T10:27:37.411Z,20.93
2018-04-08T10:30:04.961Z,16.63
2018-04-08T10:32:32.536Z,29.63
2018-04-08T10:35:00.169Z,18.87
2018-04-08T10:37:27.728Z,19.93
2018-04-08T10:39:55.327Z,20.93
2018-04-08T10:42:22.881Z,21.33
2018-04-08T10:44:50.450Z,20.30
2018-04-08T10:47:18.068Z,19.77
2018-04-08T10:49:45.612Z,20.27
2018-04-08T10:52:13.163Z,20.23
2018-04-08T10:54:40.731Z,20.27
2018-04-08T10:57:08.672Z,19.37
2018-04-08T10:59:36.233Z,20.50
2018-04-08T11:02:03.784Z,24.03
2018-04-08T11:04:31.356Z,26.80
2018-04-08T11:06:58.891Z,21.77
2018-04-08T11:09:26.464Z,17.33
2018-04-08T11:11:54.020Z,17.77
2018-04-08T11:14:21.601Z,18.60
2018-04-08T11:16:49.159Z,17.07
2018-04-08T11:19:16.743Z,16.00
2018-04-08T11:21:44.289Z,18.83
2018-04-08T11:24:11.840Z,18.60
2018-04-08T11:26:39.404Z,24.60
2018-04-08T11:29:06.981Z,21.93
2018-04-08T11:31:34.594Z,19.77
2018-04-08T11:34:02.122Z,18.70
2018-04-08T11:36:29.679Z,18.30
2018-04-08T11:38:57.272Z,16.93
2018-04-08T11:41:24.830Z,19.60
2018-04-08T11:43:52.396Z,16.40
2018-04-08T11:46:19.968Z,22.70
2018-04-08T11:48:47.516Z,20.63
2018-04-08T11:51:15.101Z,18.33
2018-04-08T11:53:42.648Z,22.83
2018-04-08T11:56:10.217Z,15.97
2018-04-08T11:58:37.812Z,15.43
2018-04-08T12:01:05.425Z,25.30
2018-04-08T12:03:33.005Z,19.53
2018-04-08T12:06:00.585Z,16.80
2018-04-08T12:08:28.118Z,16.07
2018-04-08T12:10:55.664Z,15.50
2018-04-08T12:13:23.236Z,13.40
2018-04-08T12:15:50.851Z,15.53
2018-04-08T12:18:18.405Z,19.20
2018-04-08T12:20:45.993Z,18.70
2018-04-08T12:23:13.582Z,22.83
2018-04-08T12:25:41.151Z,16.10
2018-04-08T12:28:09.089Z,18.13
2018-04-08T12:30:36.635Z,13.90
2018-04-08T12:33:04.226Z,22.73
2018-04-08T12:35:31.801Z,18.53
2018-04-08T12:37:59.353Z,23.70
2018-04-08T12:40:26.940Z,20.47
2018-04-08T12:42:54.496Z,24.70
2018-04-08T12:45:22.034Z,18.80
2018-04-08T12:47:49.607Z,18.80
2018-04-08T12:50:17.178Z,20.30
2018-04-08T12:52:44.792Z,21.63
2018-04-08T12:55:12.365Z,21.70
2018-04-08T12:57:39.928Z,20.47
2018-04-08T13:00:07.521Z,23.07
2018-04-08T13:02:35.067Z,19.30
2018-04-08T13:05:02.993Z,25.80
2018-04-08T13:07:30.548Z,24.63
2018-04-08T13:09:58.098Z,20.57
2018-04-08T13:12:25.680Z,19.03
2018-04-08T13:14:53.251Z,24.90
2018-04-08T13:17:20.810Z,19.30
2018-04-08T13:19:48.360Z,17.50
2018-04-08T13:22:15.949Z,22.20
2018-04-08T13:24:43.506Z,18.20
2018-04-08T13:27:11.069Z,23.20
2018-04-08T13:29:38.644Z,18.73
2018-04-08T13:32:06.209Z,18.73
2018-04-08T13:34:33.812Z,23.70
2018-04-08T13:37:01.369Z,25.30
2018-04-08T13:39:28.925Z,19.60
2018-04-08T13:41:56.488Z,19.57
2018-04-08T13:44:24.097Z,26.37
2018-04-08T13:46:51.641Z,20.03
2018-04-08T13:49:19.180Z,20.80
2018-04-08T13:51:46.774Z,15.30
2018-04-08T13:54:14.321Z,16.77
2018-04-08T13:56:41.874Z,20.17
2018-04-08T13:59:09.480Z,21.20
2018-04-08T14:01:37.044Z,14.20
2018-04-08T14:04:04.584Z,21.93
2018-04-08T14:06:32.150Z,18.37
2018-04-08T14:08:59.764Z,19.30
2018-04-08T14:11:27.326Z,16.63
2018-04-08T14:13:54.863Z,19.27
2018-04-08T14:16:22.445Z,29.27
2018-04-08T14:18:49.983Z,21.43
2018-04-08T14:21:17.576Z,25.33
2018-04-08T14:23:45.132Z,24.47
2018-04-08T14:26:12.688Z,20.90
2018-04-08T14:28:40.288Z,19.10
2018-04-08T14:31:07.835Z,28.50
2018-04-08T14:33:35.389Z,19.10
2018-04-08T14:36:02.985Z,32.77
2018-04-08T14:38:30.548Z,26.23
2018-04-08T14:40:58.590Z,27.20
2018-04-08T14:43:26.149Z,24.57
2018-04-08T14:45:53.687Z,29.40
2018-04-08T14:48:21.286Z,24.10
2018-04-08T14:50:48.838Z,20.10
2018-04-08T14:53:16.405Z,19.67
2018-04-08T14:55:43.994Z,21.27
2018-04-08T14:58:11.552Z,20.10
2018-04-08T15:00:39.208Z,17.70
2018-04-08T15:03:06.790Z,21.00
2018-04-08T15:05:34.353Z,14.57
2018-04-08T15:08:01.936Z,17.70
2018-04-08T15:10:29.504Z,18.87
2018-04-08T15:12:57.089Z,14.60
2018-04-08T15:15:24.648Z,17.70
2018-04-08T15:17:52.228Z,17.37
2018-04-08T15:20:19.775Z,17.40
2018-04-08T15:22:47.342Z,18.23
2018-04-08T15:25:14.934Z,19.60
2018-04-08T15:27:42.470Z,18.90
2018-04-08T15:30:10.019Z,18.07
2018-04-08T15:32:37.589Z,16.17
2018-04-08T15:35:05.141Z,15.07
2018-04-08T15:37:32.742Z,18.03
2018-04-08T15:40:00.288Z,14.87
2018-04-08T15:42:27.879Z,21.27
2018-04-08T15:44:55.465Z,21.70
2018-04-08T15:47:22.998Z,23.70
2018-04-08T15:49:50.554Z,24.47
2018-04-08T15:52:18.139Z,26.60
2018-04-08T15:54:45.685Z,23.50
2018-04-08T15:57:13.288Z,14.63
2018-04-08T15:59:40.833Z,22.27
2018-04-08T16:02:08.394Z,19.47
2018-04-08T16:04:36.112Z,20.80
2018-04-08T16:07:03.674Z,23.13
2018-04-08T16:09:31.240Z,16.60
2018-04-08T16:11:58.807Z,17.43
2018-04-08T16:14:26.360Z,23.87
2018-04-08T16:16:53.974Z,17.23
2018-04-08T16:19:21.543Z,20.20
2018-04-08T16:21:49.124Z,26.20
2018-04-08T16:24:16.698Z,20.13
2018-04-08T16:26:44.266Z,19.07
2018-04-08T16:29:11.824Z,18.50
2018-04-08T16:31:39.382Z,19.40
2018-04-08T16:34:06.956Z,20.87
2018-04-08T16:36:34.539Z,29.37
2018-04-08T16:39:02.093Z,26.87
2018-04-08T16:41:29.663Z,22.83
2018-04-08T16:43:57.235Z,20.73
2018-04-08T16:46:24.809Z,19.10
2018-04-08T16:48:52.362Z,18.73
2018-04-08T16:51:19.929Z,19.00
2018-04-08T16:53:47.577Z,14.17
2018-04-08T16:56:15.131Z,18.90
2018-04-08T16:58:42.712Z,18.03
2018-04-08T17:01:10.265Z,15.17
2018-04-08T17:03:37.831Z,17.03
2018-04-08T17:06:05.390Z,16.50
2018-04-08T17:08:32.984Z,18.23
2018-04-08T17:11:00.529Z,20.37
2018-04-08T17:13:28.132Z,18.63
2018-04-08T17:15:56.072Z,13.93
2018-04-08T17:18:23.612Z,15.57
2018-04-08T17:20:51.162Z,16.60
2018-04-08T17:23:18.779Z,13.13
2018-04-08T17:25:46.343Z,23.73
2018-04-08T17:28:13.905Z,14.60
2018-04-08T17:30:41.506Z,11.30
2018-04-08T17:33:09.059Z,10.90
2018-04-08T17:35:36.600Z,14.07
2018-04-08T17:38:04.155Z,17.27
2018-04-08T17:40:31.700Z,18.30
2018-04-08T17:42:59.308Z,13.73
2018-04-08T17:45:26.923Z,19.00
2018-04-08T17:47:54.482Z,12.70
2018-04-08T17:50:22.061Z,13.17
2018-04-08T17:52:49.615Z,16.57
2018-04-08T17:55:17.208Z,11.10
2018-04-08T17:57:44.829Z,15.17
2018-04-08T18:00:12.370Z,15.80
2018-04-08T18:02:39.923Z,15.70
2018-04-08T18:05:07.500Z,25.97
2018-04-08T18:07:35.043Z,67.30
2018-04-08T18:10:02.654Z,21.83
2018-04-08T18:12:30.216Z,16.20
2018-04-08T18:14:57.762Z,27.27
2018-04-08T18:17:25.352Z,10.83
2018-04-08T18:19:52.887Z,14.57
2018-04-08T18:22:20.869Z,22.30
2018-04-08T18:24:48.436Z,15.13
2018-04-08T18:27:15.981Z,9.53
2018-04-08T18:29:43.562Z,12.97
2018-04-08T18:32:11.100Z,16.93
2018-04-08T18:34:38.648Z,12.30
2018-04-08T18:37:06.339Z,17.20
2018-04-08T18:39:33.885Z,15.53
2018-04-08T18:42:02.019Z,13.60
2018-04-08T18:44:29.940Z,12.10
2018-04-08T18:46:57.488Z,12.50
2018-04-08T18:49:25.029Z,11.20
2018-04-08T18:51:52.591Z,10.17
2018-04-08T18:54:20.163Z,10.83
2018-04-08T18:56:47.726Z,12.17
2018-04-08T18:59:15.277Z,13.63
2018-04-08T19:01:42.849Z,15.80
2018-04-08T19:04:10.378Z,9.57
2018-04-08T19:06:37.968Z,10.93
2018-04-08T19:09:06.295Z,16.80
2018-04-08T19:11:33.836Z,13.37
2018-04-08T19:14:01.769Z,11.17
2018-04-08T19:16:29.310Z,21.23
2018-04-08T19:18:56.853Z,11.57
2018-04-08T19:21:24.429Z,12.37
2018-04-08T19:23:51.958Z,13.60
2018-04-08T19:26:19.556Z,21.57
2018-04-08T19:28:47.157Z,16.70
2018-04-08T19:31:14.710Z,21.90
2018-04-08T19:33:42.265Z,16.70
2018-04-08T19:36:09.843Z,28.83
2018-04-08T19:38:37.690Z,20.73
2018-04-08T19:41:05.290Z,27.53
2018-04-08T19:43:32.836Z,31.10
2018-04-08T19:46:00.425Z,19.43
2018-04-08T19:48:27.962Z,25.50
2018-04-08T19:50:55.953Z,20.53
2018-04-08T19:53:23.616Z,17.10
2018-04-08T19:55:51.151Z,18.90
2018-04-08T19:58:18.761Z,23.70
2018-04-08T20:00:46.309Z,23.10
2018-04-08T20:03:13.866Z,21.37
2018-04-08T20:05:41.436Z,26.90
2018-04-08T20:08:08.967Z,22.00
2018-04-08T20:10:36.578Z,21.10
2018-04-08T20:13:04.115Z,22.97
2018-04-08T20:15:31.662Z,24.00
2018-04-08T20:17:59.231Z,29.37
2018-04-08T20:20:26.802Z,25.80
2018-04-08T20:22:54.405Z,28.23
2018-04-08T20:25:21.954Z,32.13
2018-04-08T20:27:49.508Z,38.27
2018-04-08T20:30:17.083Z,30.47
2018-04-08T20:32:44.635Z,31.50
2018-04-08T20:35:12.244Z,39.60
2018-04-08T20:37:39.793Z,37.90
2018-04-08T20:40:07.351Z,39.87
2018-04-08T20:42:34.951Z,50.60
2018-04-08T20:45:02.507Z,45.07
2018-04-08T20:47:30.060Z,43.87
2018-04-08T20:49:57.640Z,41.40
2018-04-08T20:52:25.201Z,48.17
2018-04-08T20:54:53.262Z,47.03
2018-04-08T20:57:20.822Z,47.70
2018-04-08T20:59:48.466Z,47.77
2018-04-08T21:02:16.037Z,52.93
2018-04-08T21:04:43.603Z,51.00
2018-04-08T21:07:11.143Z,54.17
2018-04-08T21:09:38.708Z,61.47
2018-04-08T21:14:04.387Z,67.27
2018-04-08T21:16:31.946Z,60.87
2018-04-08T21:18:59.518Z,58.80
2018-04-08T21:21:27.066Z,73.97
2018-04-08T21:23:55.063Z,70.23
2018-04-08T21:26:22.612Z,65.27
2018-04-08T21:28:50.151Z,74.20
2018-04-08T21:31:17.721Z,65.40
2018-04-08T21:33:45.278Z,68.30
2018-04-08T21:36:12.853Z,73.07
2018-04-08T21:38:40.405Z,74.40
2018-04-08T21:41:08.009Z,72.30
2018-04-08T21:43:35.564Z,63.83
2018-04-08T21:46:03.103Z,78.17
2018-04-08T21:48:30.704Z,79.10
2018-04-08T21:50:58.264Z,85.10
2018-04-08T21:53:25.814Z,80.80
2018-04-08T21:55:53.411Z,97.47
2018-04-08T21:58:20.981Z,82.27
2018-04-08T22:00:48.550Z,86.27
2018-04-08T22:03:16.110Z,89.53
2018-04-08T22:05:43.708Z,99.73
2018-04-08T22:08:11.267Z,85.13
2018-04-08T22:10:38.803Z,91.40
2018-04-08T22:13:06.380Z,106.47
2018-04-08T22:15:33.963Z,89.10
2018-04-08T22:18:01.550Z,101.33
2018-04-08T22:20:29.159Z,98.97
2018-04-08T22:22:56.723Z,91.57
2018-04-08T22:25:24.280Z,91.47
2018-04-08T22:27:51.844Z,109.70
2018-04-08T22:30:19.399Z,98.80
2018-04-08T22:32:47.011Z,108.90
2018-04-08T22:35:15.492Z,98.73
2018-04-08T22:37:43.053Z,107.93
2018-04-08T22:40:10.678Z,107.13
2018-04-08T22:42:38.244Z,94.80
2018-04-08T22:45:05.805Z,103.33
2018-04-08T22:47:33.420Z,100.20
2018-04-08T22:50:00.972Z,111.50
2018-04-08T22:52:28.536Z,110.17
2018-04-08T22:54:56.661Z,96.67
2018-04-08T22:57:24.248Z,108.10
2018-04-08T22:59:51.901Z,127.97
2018-04-08T23:02:19.447Z,103.07
2018-04-08T23:04:47.001Z,114.03
2018-04-08T23:07:14.571Z,104.03
2018-04-08T23:09:42.137Z,110.07
2018-04-08T23:12:09.731Z,110.90
2018-04-08T23:14:37.276Z,102.37
2018-04-08T23:17:04.828Z,109.93
2018-04-08T23:19:32.431Z,115.93
2018-04-08T23:21:59.972Z,110.27
2018-04-08T23:24:27.520Z,113.97
2018-04-08T23:26:55.082Z,113.67
2018-04-08T23:29:22.666Z,111.23
2018-04-08T23:31:50.220Z,119.90
2018-04-08T23:34:17.783Z,113.30
2018-04-08T23:36:45.355Z,112.10
2018-04-08T23:39:12.928Z,118.50
2018-04-08T23:41:40.909Z,121.33
2018-04-08T23:44:08.476Z,119.83
2018-04-08T23:46:36.063Z,115.60
2018-04-08T23:49:03.660Z,120.17
2018-04-08T23:51:31.213Z,109.47
2018-04-08T23:53:58.782Z,118.10
2018-04-08T23:56:26.360Z,132.10
2018-04-08T23:58:53.907Z,120.60
